Time;durP1;ratioP1;P1;durP2;ratioP2;P2;SDS_P1;SDS_P2;PMS_P1;PMS_P2;Temp;Humidity;BMP_temperature;BMP_pressure;BME280_temperature;BME280_humidity;BME280_pressure;Samples;Min_cycle;Max_cycle;Signal;HPM_P1;HPM_P2
2021/06/11 00:01:40;;;;;;;11.20;7.65;;;19.80;58.80;;;;;;5002388;28;20043;-83
2021/06/11 00:04:06;;;;;;;14.35;7.47;;;19.80;58.50;;;;;;5011483;28;20475;-84
2021/06/11 00:06:32;;;;;;;7.40;5.45;;;19.80;58.70;;;;;;5004183;28;20128;-84
2021/06/11 00:08:58;;;;;;;4.85;4.45;;;19.70;58.30;;;;;;5002279;28;20034;-84
2021/06/11 00:11:24;;;;;;;8.57;7.70;;;19.70;58.30;;;;;;4993908;28;20081;-84
2021/06/11 00:13:49;;;;;;;10.30;7.88;;;19.40;59.90;;;;;;5019411;28;20045;-84
2021/06/11 00:16:15;;;;;;;12.20;8.23;;;19.60;59.60;;;;;;5021694;28;20080;-84
2021/06/11 00:18:40;;;;;;;13.07;7.25;;;19.50;59.00;;;;;;5032632;28;20041;-84
2021/06/11 00:21:06;;;;;;;5.38;4.88;;;19.60;58.80;;;;;;5022982;28;20170;-85
2021/06/11 00:23:31;;;;;;;7.57;5.35;;;19.50;58.60;;;;;;5009386;28;20040;-84
2021/06/11 00:25:57;;;;;;;8.65;6.05;;;19.50;58.90;;;;;;5006520;28;20041;-82
2021/06/11 00:28:22;;;;;;;9.70;8.50;;;19.40;58.80;;;;;;5027021;28;20097;-84
2021/06/11 00:30:48;;;;;;;8.63;7.80;;;19.30;58.80;;;;;;5016557;28;20489;-84
2021/06/11 00:33:13;;;;;;;5.43;4.93;;;19.20;59.20;;;;;;5030229;28;20049;-83
2021/06/11 00:35:39;;;;;;;7.97;5.90;;;19.20;59.30;;;;;;5004470;28;20091;-84
2021/06/11 00:38:05;;;;;;;7.10;5.45;;;19.10;59.70;;;;;;5019336;28;20032;-83
2021/06/11 00:40:31;;;;;;;8.57;7.78;;;19.10;59.50;;;;;;5026404;28;20041;-83
2021/06/11 00:42:56;;;;;;;6.90;6.05;;;19.10;59.50;;;;;;5000405;28;20084;-84
2021/06/11 00:45:22;;;;;;;7.82;5.82;;;19.00;59.80;;;;;;5020497;28;20396;-83
2021/06/11 00:47:48;;;;;;;7.28;6.32;;;19.00;60.20;;;;;;5005959;28;20044;-83
2021/06/11 00:50:18;;;;;;;11.98;8.43;;;19.00;60.40;;;;;;5031065;28;20102;-84
2021/06/11 00:52:44;;;;;;;10.10;6.90;;;18.80;59.90;;;;;;5012138;28;20084;-83
2021/06/11 00:55:10;;;;;;;6.25;5.60;;;18.80;60.40;;;;;;5022056;28;20435;-83
2021/06/11 00:57:35;;;;;;;5.68;5.07;;;18.90;60.90;;;;;;5011861;28;20448;-84
2021/06/11 01:00:01;;;;;;;7.57;6.90;;;18.90;60.70;;;;;;5011318;28;20060;-83
2021/06/11 01:02:27;;;;;;;8.18;5.95;;;18.90;60.90;;;;;;5027638;28;20026;-83
2021/06/11 01:04:52;;;;;;;8.68;7.00;;;18.70;60.40;;;;;;5031439;28;20033;-83
2021/06/11 01:07:18;;;;;;;7.68;5.60;;;18.50;60.60;;;;;;5011953;28;20041;-82
2021/06/11 01:09:44;;;;;;;10.60;8.25;;;18.50;60.90;;;;;;5034498;28;20063;-82
2021/06/11 01:12:09;;;;;;;8.32;7.38;;;18.40;60.60;;;;;;5035546;28;20029;-82
2021/06/11 01:14:36;;;;;;;8.75;7.95;;;18.40;60.90;;;;;;5016073;28;20109;-82
2021/06/11 01:17:02;;;;;;;11.05;8.23;;;18.20;60.60;;;;;;5046257;28;20029;-82
2021/06/11 01:19:33;;;;;;;9.25;7.80;;;18.10;60.90;;;;;;5010105;28;20037;-83
2021/06/11 01:22:02;;;;;;;9.63;8.48;;;18.10;61.10;;;;;;5021949;28;20099;-82
2021/06/11 01:24:33;;;;;;;7.00;6.03;;;18.10;61.00;;;;;;5025566;28;20037;-83
2021/06/11 01:26:58;;;;;;;7.45;6.28;;;18.00;61.00;;;;;;5023846;28;20048;-82
2021/06/11 01:29:26;;;;;;;8.30;7.18;;;18.00;61.70;;;;;;5033195;28;20663;-83
2021/06/11 01:31:53;;;;;;;7.22;5.90;;;18.10;61.60;;;;;;5036590;28;20465;-82
2021/06/11 01:34:37;;;;;;;8.02;5.93;;;18.00;61.40;;;;;;5006446;28;20071;-82
2021/06/11 01:37:11;;;;;;;10.45;7.32;;;18.10;61.90;;;;;;5025614;28;20037;-82
2021/06/11 01:39:37;;;;;;;8.55;7.63;;;18.00;61.70;;;;;;5033989;28;20033;-82
2021/06/11 01:42:03;;;;;;;9.45;7.05;;;17.90;61.50;;;;;;5021538;28;20036;-82
2021/06/11 01:44:29;;;;;;;8.10;6.20;;;17.80;62.10;;;;;;5032011;28;20033;-82
2021/06/11 01:46:55;;;;;;;8.50;7.28;;;17.80;62.30;;;;;;5018270;28;20036;-82
2021/06/11 01:49:21;;;;;;;6.88;5.35;;;17.80;62.00;;;;;;5030870;28;20397;-82
2021/06/11 01:51:46;;;;;;;6.93;5.75;;;17.70;62.30;;;;;;5022529;28;20038;-82
2021/06/11 01:54:12;;;;;;;9.55;6.72;;;17.70;62.40;;;;;;5016825;28;20029;-82
2021/06/11 01:56:37;;;;;;;7.53;4.82;;;17.70;62.40;;;;;;5008732;28;20041;-82
2021/06/11 01:59:04;;;;;;;9.73;7.82;;;17.60;62.60;;;;;;4997518;28;20120;-82
2021/06/11 02:01:30;;;;;;;7.28;5.60;;;17.50;62.30;;;;;;5032009;28;20836;-81
2021/06/11 02:03:56;;;;;;;8.23;6.55;;;17.40;62.60;;;;;;5028550;28;20037;-81
2021/06/11 02:06:22;;;;;;;6.15;5.20;;;17.40;63.30;;;;;;5003841;28;20026;-82
2021/06/11 02:08:49;;;;;;;7.15;5.50;;;17.50;63.80;;;;;;4997038;28;20479;-81
2021/06/11 02:11:15;;;;;;;6.07;5.30;;;17.40;63.20;;;;;;5019320;28;20029;-81
2021/06/11 02:13:45;;;;;;;11.80;6.93;;;17.40;63.40;;;;;;5011841;28;20037;-81
2021/06/11 02:16:11;;;;;;;7.10;5.53;;;17.20;63.20;;;;;;5023605;28;20048;-81
2021/06/11 02:18:37;;;;;;;7.13;6.15;;;17.50;65.00;;;;;;5013518;28;20037;-81
2021/06/11 02:21:06;;;;;;;6.32;5.72;;;17.40;64.10;;;;;;5021181;28;20670;-81
2021/06/11 02:23:32;;;;;;;6.15;5.55;;;17.20;63.40;;;;;;5026339;28;20041;-81
2021/06/11 02:25:57;;;;;;;12.15;6.03;;;17.10;63.60;;;;;;5035606;28;20036;-81
2021/06/11 02:28:23;;;;;;;7.90;7.07;;;17.00;63.80;;;;;;5017774;28;20489;-81
2021/06/11 02:30:48;;;;;;;7.95;5.95;;;17.10;65.00;;;;;;5013158;28;20029;-81
2021/06/11 02:33:14;;;;;;;7.03;5.68;;;17.00;63.80;;;;;;4996501;28;20100;-81
2021/06/11 02:35:40;;;;;;;7.47;6.72;;;17.20;65.70;;;;;;4998483;28;20029;-80
2021/06/11 02:38:06;;;;;;;6.28;5.68;;;17.10;65.30;;;;;;5001625;28;20216;-80
2021/06/11 02:40:32;;;;;;;6.40;5.80;;;17.00;65.00;;;;;;4998663;28;20042;-81
2021/06/11 02:43:07;;;;;;;8.90;6.80;;;16.90;65.10;;;;;;5036046;28;20029;-81
2021/06/11 02:45:34;;;;;;;14.68;6.78;;;16.80;64.80;;;;;;4999609;28;20032;-80
2021/06/11 02:48:24;;;;;;;7.40;6.38;;;16.80;65.50;;;;;;4999286;28;20075;-81
2021/06/11 02:50:54;;;;;;;6.68;5.70;;;16.90;66.20;;;;;;5034319;28;20029;-81
2021/06/11 02:53:25;;;;;;;6.53;5.93;;;16.80;64.90;;;;;;5021243;28;20106;-81
2021/06/11 02:55:52;;;;;;;6.00;5.43;;;16.80;65.60;;;;;;5030274;28;20301;-80
2021/06/11 02:58:19;;;;;;;6.18;5.68;;;16.70;66.00;;;;;;4999692;28;20030;-81
2021/06/11 03:00:45;;;;;;;7.38;6.32;;;16.70;66.60;;;;;;5030380;28;20045;-81
2021/06/11 03:03:27;;;;;;;6.15;5.65;;;16.70;67.70;;;;;;5032350;28;20469;-81
2021/06/11 03:05:55;;;;;;;11.00;7.50;;;16.70;66.60;;;;;;5020949;28;20034;-81
2021/06/11 03:08:23;;;;;;;9.77;7.03;;;16.70;68.30;;;;;;5022514;28;20033;-81
2021/06/11 03:10:50;;;;;;;6.35;5.85;;;16.70;68.00;;;;;;5034336;28;20038;-80
2021/06/11 03:13:15;;;;;;;9.35;8.38;;;16.70;66.80;;;;;;5010267;28;20041;-80
2021/06/11 03:15:41;;;;;;;9.18;8.18;;;16.70;68.50;;;;;;5017658;28;20505;-80
2021/06/11 03:18:08;;;;;;;8.25;6.15;;;16.80;68.80;;;;;;5018109;28;20040;-80
2021/06/11 03:20:36;;;;;;;8.27;6.75;;;16.60;67.30;;;;;;5018735;28;20076;-81
2021/06/11 03:23:11;;;;;;;9.57;8.15;;;16.60;69.20;;;;;;5024750;28;20033;-80
2021/06/11 03:26:03;;;;;;;9.65;6.65;;;16.60;69.60;;;;;;5006983;28;20037;-81
2021/06/11 03:28:37;;;;;;;7.53;6.70;;;16.70;70.50;;;;;;5015683;28;20029;-80
2021/06/11 03:31:03;;;;;;;7.35;6.25;;;16.70;69.90;;;;;;5036590;28;20052;-80
2021/06/11 03:33:33;;;;;;;8.38;6.57;;;16.50;69.30;;;;;;4998835;28;20433;-80
2021/06/11 03:36:04;;;;;;;7.18;6.05;;;16.60;70.10;;;;;;5029284;28;20493;-80
2021/06/11 03:38:30;;;;;;;6.63;5.80;;;16.50;69.80;;;;;;5003679;28;20032;-80
2021/06/11 03:40:55;;;;;;;7.28;6.50;;;16.40;69.60;;;;;;5033028;28;20696;-80
2021/06/11 03:43:21;;;;;;;9.18;7.22;;;16.50;69.50;;;;;;5002226;28;20038;-80
2021/06/11 03:45:46;;;;;;;9.80;8.80;;;16.70;70.60;;;;;;5030682;28;20421;-80
2021/06/11 03:48:14;;;;;;;9.98;7.45;;;16.60;70.50;;;;;;5013207;28;20434;-80
2021/06/11 03:50:40;;;;;;;11.20;8.90;;;16.50;70.10;;;;;;5019830;28;20029;-80
2021/06/11 03:53:06;;;;;;;9.07;6.50;;;16.40;70.60;;;;;;5010660;28;20028;-80
2021/06/11 03:55:40;;;;;;;10.65;6.95;;;16.50;70.60;;;;;;5013206;28;20413;-81
2021/06/11 03:58:11;;;;;;;7.03;6.32;;;16.60;70.40;;;;;;5015634;28;20091;-80
2021/06/11 04:00:36;;;;;;;10.70;9.60;;;16.50;69.50;;;;;;5048742;28;20756;-80
2021/06/11 04:03:02;;;;;;;11.00;9.40;;;16.40;69.00;;;;;;5002604;28;20029;-80
2021/06/11 04:05:27;;;;;;;7.00;5.18;;;16.40;69.20;;;;;;5031859;28;20037;-80
2021/06/11 04:07:56;;;;;;;6.30;5.50;;;16.40;68.70;;;;;;5013124;28;20040;-80
2021/06/11 04:10:38;;;;;;;9.00;6.82;;;16.50;68.90;;;;;;5023342;28;20496;-80
2021/06/11 04:13:17;;;;;;;9.65;6.85;;;16.70;70.60;;;;;;5033941;28;20029;-80
2021/06/11 04:15:43;;;;;;;10.05;8.00;;;16.80;71.60;;;;;;5004403;28;20027;-80
2021/06/11 04:18:10;;;;;;;8.95;7.43;;;16.90;70.50;;;;;;5003209;28;20037;-80
2021/06/11 04:20:36;;;;;;;8.15;6.80;;;16.80;68.90;;;;;;5006365;28;20037;-80
2021/06/11 04:23:02;;;;;;;11.43;8.98;;;16.90;69.60;;;;;;5002207;28;20041;-80
2021/06/11 04:25:32;;;;;;;6.95;6.25;;;17.00;69.60;;;;;;5024492;28;20077;-81
2021/06/11 04:27:58;;;;;;;8.98;6.63;;;17.10;70.00;;;;;;5017804;28;20551;-82
2021/06/11 04:30:24;;;;;;;7.57;6.30;;;17.20;71.00;;;;;;5032857;28;20026;-81
2021/06/11 04:32:50;;;;;;;10.27;7.97;;;17.30;71.20;;;;;;5014230;28;20485;-81
2021/06/11 04:35:21;;;;;;;10.02;7.85;;;17.40;71.50;;;;;;5022503;28;20021;-81
2021/06/11 04:37:46;;;;;;;8.32;7.22;;;17.50;71.10;;;;;;4674624;28;10000492;-81
2021/06/11 04:40:12;;;;;;;10.32;8.13;;;17.60;71.20;;;;;;5004832;28;20022;-81
2021/06/11 04:42:38;;;;;;;7.82;6.20;;;17.80;69.60;;;;;;5011183;28;20029;-81
2021/06/11 04:45:04;;;;;;;9.73;8.13;;;17.90;68.90;;;;;;5003814;28;20036;-81
2021/06/11 04:47:30;;;;;;;11.02;9.48;;;18.10;68.50;;;;;;5030119;28;20113;-81
2021/06/11 04:49:55;;;;;;;8.68;7.80;;;18.20;68.10;;;;;;5019776;28;20544;-82
2021/06/11 04:52:21;;;;;;;10.75;7.85;;;18.40;68.50;;;;;;5038958;28;20025;-81
2021/06/11 04:54:46;;;;;;;11.65;9.00;;;18.50;67.90;;;;;;5025622;28;20505;-81
2021/06/11 04:57:12;;;;;;;12.48;9.40;;;18.70;68.00;;;;;;5037759;28;20031;-81
2021/06/11 04:59:37;;;;;;;13.95;10.30;;;18.90;68.50;;;;;;5024055;28;20029;-82
2021/06/11 05:02:03;;;;;;;6.18;5.10;;;19.10;68.20;;;;;;5027390;28;20246;-81
2021/06/11 05:04:29;;;;;;;10.30;7.35;;;19.30;66.50;;;;;;5015434;28;20030;-81
2021/06/11 05:06:54;;;;;;;13.90;10.93;;;19.50;67.90;;;;;;5023274;28;20052;-81
2021/06/11 05:09:20;;;;;;;12.55;9.30;;;19.70;67.40;;;;;;5020891;28;20493;-81
2021/06/11 05:11:47;;;;;;;4.43;4.03;;;19.90;68.10;;;;;;5020975;28;20033;-81
2021/06/11 05:14:12;;;;;;;8.45;7.53;;;20.10;65.10;;;;;;5020447;28;20034;-81
2021/06/11 05:16:38;;;;;;;7.43;6.70;;;20.20;66.90;;;;;;5004130;28;20091;-81
2021/06/11 05:19:04;;;;;;;7.75;6.75;;;20.50;64.70;;;;;;5023864;28;20087;-82
2021/06/11 05:21:30;;;;;;;9.30;8.13;;;20.60;67.60;;;;;;5036387;28;20119;-81
2021/06/11 05:23:55;;;;;;;7.68;6.88;;;21.00;68.00;;;;;;5008670;28;20461;-81
2021/06/11 05:26:21;;;;;;;8.27;6.75;;;21.20;67.50;;;;;;5034391;28;20468;-82
2021/06/11 05:28:46;;;;;;;9.40;7.13;;;21.50;68.70;;;;;;5031724;28;20393;-81
2021/06/11 05:31:12;;;;;;;15.40;9.63;;;21.70;67.90;;;;;;5024287;28;20489;-82
2021/06/11 05:33:37;;;;;;;9.82;7.80;;;22.00;68.70;;;;;;5035060;28;20041;-82
2021/06/11 05:36:03;;;;;;;12.05;8.20;;;22.20;68.40;;;;;;5026113;28;20040;-82
2021/06/11 05:38:29;;;;;;;7.55;6.03;;;22.40;68.60;;;;;;5001477;28;20061;-82
2021/06/11 05:40:55;;;;;;;7.75;6.78;;;22.60;64.80;;;;;;5022676;28;20528;-82
2021/06/11 05:43:21;;;;;;;7.22;5.90;;;22.70;68.00;;;;;;5016385;28;20500;-82
2021/06/11 05:45:46;;;;;;;12.32;8.80;;;22.70;61.70;;;;;;5021878;28;20040;-82
2021/06/11 05:48:12;;;;;;;8.88;7.28;;;22.90;68.50;;;;;;5019924;28;20079;-82
2021/06/11 05:50:39;;;;;;;10.07;8.23;;;23.30;67.10;;;;;;5021738;28;20549;-82
2021/06/11 05:53:04;;;;;;;14.82;10.55;;;23.50;68.00;;;;;;5006888;28;20155;-82
2021/06/11 05:55:30;;;;;;;15.65;11.07;;;23.80;67.80;;;;;;5024007;28;20679;-83
2021/06/11 05:57:56;;;;;;;14.48;10.10;;;24.10;67.90;;;;;;5040279;28;20034;-83
2021/06/11 06:00:22;;;;;;;15.32;11.60;;;24.20;64.30;;;;;;5030693;28;20032;-83
2021/06/11 06:02:47;;;;;;;15.27;11.15;;;24.40;67.50;;;;;;5027176;28;20116;-83
2021/06/11 06:05:14;;;;;;;7.07;5.97;;;24.60;66.40;;;;;;5031312;28;20381;-82
2021/06/11 06:07:39;;;;;;;13.23;8.75;;;24.70;63.00;;;;;;5009827;28;20575;-83
2021/06/11 06:10:05;;;;;;;7.45;5.72;;;24.90;66.50;;;;;;5019881;28;20025;-83
2021/06/11 06:12:31;;;;;;;13.35;11.30;;;24.50;60.30;;;;;;5004341;28;20033;-83
2021/06/11 06:14:58;;;;;;;17.20;11.20;;;25.10;66.10;;;;;;5022543;28;20525;-83
2021/06/11 06:17:24;;;;;;;15.68;11.68;;;25.40;65.50;;;;;;5030632;28;20044;-83
2021/06/11 06:19:50;;;;;;;14.48;10.82;;;25.70;65.10;;;;;;5017774;28;20025;-84
2021/06/11 06:22:15;;;;;;;10.65;7.78;;;26.10;64.10;;;;;;5024447;28;20513;-84
2021/06/11 06:24:41;;;;;;;11.30;9.23;;;26.10;63.20;;;;;;5029673;28;20382;-84
2021/06/11 06:27:08;;;;;;;11.40;10.18;;;26.00;63.40;;;;;;5030931;28;20444;-83
2021/06/11 06:29:34;;;;;;;10.60;8.13;;;26.40;63.30;;;;;;5017624;28;20508;-84
2021/06/11 06:32:00;;;;;;;11.57;8.93;;;26.20;63.30;;;;;;5021250;28;20048;-83
2021/06/11 06:34:26;;;;;;;9.80;7.68;;;25.90;63.30;;;;;;5022552;28;20085;-83
2021/06/11 06:36:52;;;;;;;7.22;5.90;;;26.20;59.10;;;;;;5003231;28;20398;-83
2021/06/11 06:39:17;;;;;;;11.00;7.53;;;26.40;60.20;;;;;;5013059;28;20511;-82
2021/06/11 06:41:43;;;;;;;12.05;9.45;;;26.40;61.70;;;;;;5017564;28;20064;-83
2021/06/11 06:44:11;;;;;;;9.73;8.63;;;26.50;58.90;;;;;;5021951;28;20037;-83
2021/06/11 06:46:37;;;;;;;12.63;9.65;;;26.80;59.80;;;;;;5020954;28;20034;-84
2021/06/11 06:49:02;;;;;;;12.95;9.93;;;27.30;59.50;;;;;;5001863;28;20047;-84
2021/06/11 06:51:28;;;;;;;9.20;8.00;;;27.40;61.80;;;;;;5034258;28;20030;-84
2021/06/11 06:53:55;;;;;;;7.85;6.25;;;27.90;59.50;;;;;;4998419;28;20022;-85
2021/06/11 06:56:24;;;;;;;17.05;10.73;;;27.70;58.10;;;;;;5015904;28;20482;-85
2021/06/11 06:58:49;;;;;;;16.13;7.47;;;28.00;60.60;;;;;;5033455;28;20083;-87
2021/06/11 07:01:15;;;;;;;8.93;6.72;;;28.80;58.90;;;;;;5015741;28;20053;-86
2021/06/11 07:03:40;;;;;;;18.45;11.32;;;29.00;58.00;;;;;;5008550;28;20029;-86
2021/06/11 07:06:06;;;;;;;19.35;11.38;;;29.50;56.50;;;;;;5007783;28;20353;-85
2021/06/11 07:08:32;;;;;;;20.52;13.20;;;29.70;55.50;;;;;;5029828;28;20034;-86
2021/06/11 07:10:58;;;;;;;20.20;12.50;;;29.80;54.90;;;;;;4998059;28;20037;-85
2021/06/11 07:13:24;;;;;;;12.55;7.93;;;29.90;55.10;;;;;;5027594;28;20060;-85
2021/06/11 07:15:50;;;;;;;17.35;9.38;;;29.40;54.30;;;;;;5007223;28;20069;-84
2021/06/11 07:18:17;;;;;;;18.33;10.27;;;29.20;54.90;;;;;;5019372;28;20033;-84
2021/06/11 07:20:42;;;;;;;21.52;13.02;;;29.50;55.70;;;;;;5018387;28;20115;-84
2021/06/11 07:23:08;;;;;;;21.10;11.70;;;30.10;54.60;;;;;;5026382;28;20108;-85
2021/06/11 07:25:33;;;;;;;25.13;12.45;;;30.40;54.00;;;;;;5000286;28;20037;-84
2021/06/11 07:27:59;;;;;;;17.45;9.88;;;30.70;53.30;;;;;;5025933;28;20033;-84
2021/06/11 07:30:25;;;;;;;18.65;9.65;;;30.80;52.20;;;;;;5002647;28;20038;-83
2021/06/11 07:32:51;;;;;;;17.00;10.48;;;30.70;52.10;;;;;;5028456;28;20034;-83
2021/06/11 07:35:17;;;;;;;11.95;7.38;;;31.00;53.00;;;;;;5011200;28;20031;-83
2021/06/11 07:37:42;;;;;;;11.27;7.30;;;31.20;52.70;;;;;;5017706;28;20045;-83
2021/06/11 07:40:09;;;;;;;14.57;8.90;;;31.30;51.40;;;;;;5015838;28;20120;-82
2021/06/11 07:42:34;;;;;;;12.82;7.80;;;31.40;52.10;;;;;;5022996;28;20457;-83
2021/06/11 07:45:00;;;;;;;19.80;10.38;;;30.70;51.70;;;;;;5003941;28;20033;-83
2021/06/11 07:47:25;;;;;;;10.10;4.85;;;31.00;53.20;;;;;;5015212;28;20112;-82
2021/06/11 07:49:51;;;;;;;12.32;9.52;;;31.60;51.10;;;;;;5012498;28;20099;-83
2021/06/11 07:52:16;;;;;;;10.65;7.45;;;31.90;50.60;;;;;;4996292;28;20292;-81
2021/06/11 07:54:42;;;;;;;11.50;7.30;;;31.10;51.50;;;;;;4999177;28;20033;-82
2021/06/11 07:57:08;;;;;;;12.50;7.38;;;31.00;51.30;;;;;;5030679;28;20035;-83
2021/06/11 07:59:34;;;;;;;9.73;8.30;;;31.20;50.60;;;;;;5024633;28;20089;-83
2021/06/11 08:01:59;;;;;;;9.85;6.18;;;31.10;51.10;;;;;;5016364;28;20428;-82
2021/06/11 08:04:26;;;;;;;18.67;7.93;;;30.80;50.90;;;;;;5020545;28;20037;-82
2021/06/11 08:06:51;;;;;;;15.98;8.05;;;30.60;52.00;;;;;;5034982;28;20053;-82
2021/06/11 08:09:17;;;;;;;12.52;8.98;;;31.10;51.20;;;;;;5035916;28;20060;-82
2021/06/11 08:11:42;;;;;;;10.95;7.30;;;31.60;50.80;;;;;;5023008;28;20060;-80
2021/06/11 08:14:08;;;;;;;16.02;10.45;;;31.60;50.70;;;;;;5028258;28;20036;-81
2021/06/11 08:16:34;;;;;;;12.73;5.95;;;31.70;50.50;;;;;;5038360;28;20034;-81
2021/06/11 08:18:59;;;;;;;12.40;5.47;;;32.40;49.50;;;;;;5018870;28;20057;-81
2021/06/11 08:21:25;;;;;;;13.98;6.70;;;32.40;48.90;;;;;;5040621;28;20153;-81
2021/06/11 08:23:50;;;;;;;13.32;8.77;;;31.90;49.40;;;;;;5035828;28;20464;-80
2021/06/11 08:26:16;;;;;;;10.95;7.75;;;32.40;49.60;;;;;;5019204;28;20030;-80
2021/06/11 08:28:42;;;;;;;14.88;8.15;;;32.20;49.10;;;;;;5034686;28;20112;-79
2021/06/11 08:31:07;;;;;;;9.90;5.80;;;32.80;48.80;;;;;;5025856;28;20041;-79
2021/06/11 08:33:33;;;;;;;8.48;6.53;;;33.10;48.40;;;;;;5021977;28;20044;-79
2021/06/11 08:35:58;;;;;;;7.03;5.10;;;33.00;47.90;;;;;;5038591;28;20112;-79
2021/06/11 08:38:24;;;;;;;9.68;6.53;;;33.20;47.80;;;;;;5034429;28;20025;-79
2021/06/11 08:40:50;;;;;;;8.20;4.47;;;33.40;46.70;;;;;;5016078;28;20033;-79
2021/06/11 08:43:16;;;;;;;9.32;6.45;;;33.10;47.40;;;;;;4989496;28;20030;-79
2021/06/11 08:45:42;;;;;;;5.38;3.78;;;33.00;47.20;;;;;;5018922;28;20025;-79
2021/06/11 08:48:08;;;;;;;13.07;6.35;;;32.90;47.10;;;;;;5027654;28;20512;-79
2021/06/11 08:50:34;;;;;;;6.03;5.30;;;33.00;47.10;;;;;;5036708;28;20033;-79
2021/06/11 08:53:01;;;;;;;8.65;6.50;;;33.20;46.60;;;;;;5002800;28;20026;-79
2021/06/11 08:55:26;;;;;;;8.85;4.40;;;33.50;46.70;;;;;;5040545;28;20029;-79
2021/06/11 08:57:52;;;;;;;13.60;9.30;;;33.80;46.60;;;;;;5018168;28;20025;-79
2021/06/11 09:00:20;;;;;;;10.68;6.80;;;34.10;45.90;;;;;;5021415;28;20226;-79
2021/06/11 09:03:18;;;;;;;12.48;6.65;;;34.10;46.20;;;;;;5026335;28;20106;-79
2021/06/11 09:06:04;;;;;;;12.10;9.25;;;34.20;45.20;;;;;;5034725;28;20481;-78
2021/06/11 09:08:30;;;;;;;10.88;8.40;;;34.30;44.80;;;;;;5037738;28;20057;-78
2021/06/11 09:11:16;;;;;;;6.10;3.97;;;34.50;44.50;;;;;;5024565;28;20445;-78
2021/06/11 09:13:42;;;;;;;7.50;4.82;;;34.30;45.00;;;;;;5034329;28;20029;-78
2021/06/11 09:16:15;;;;;;;9.38;7.40;;;34.30;45.00;;;;;;5024315;28;20156;-78
2021/06/11 09:18:50;;;;;;;7.88;5.85;;;34.00;45.60;;;;;;5021394;28;20032;-77
2021/06/11 09:21:28;;;;;;;17.00;9.07;;;34.40;45.30;;;;;;5033991;28;20632;-77
2021/06/11 09:24:16;;;;;;;9.40;8.00;;;34.80;45.10;;;;;;5038361;28;20076;-77
2021/06/11 09:26:43;;;;;;;10.95;9.43;;;35.20;43.90;;;;;;5025876;28;20452;-78
2021/06/11 09:29:22;;;;;;;10.50;6.03;;;35.30;43.10;;;;;;5034547;28;20091;-78
2021/06/11 09:31:48;;;;;;;6.88;3.97;;;35.20;43.80;;;;;;5021815;28;20120;-78
2021/06/11 09:34:21;;;;;;;4.57;4.13;;;35.40;43.90;;;;;;5022118;28;20124;-77
2021/06/11 09:37:00;;;;;;;7.88;4.80;;;35.10;44.00;;;;;;5028299;28;20025;-78
2021/06/11 09:39:47;;;;;;;11.20;8.15;;;35.40;43.30;;;;;;5023487;28;20076;-77
2021/06/11 09:42:14;;;;;;;6.70;5.15;;;35.10;43.60;;;;;;5034704;28;20036;-78
2021/06/11 09:44:40;;;;;;;7.45;4.70;;;35.00;43.90;;;;;;5019647;28;20094;-77
2021/06/11 09:47:05;;;;;;;5.40;4.28;;;35.00;43.80;;;;;;4987696;28;20026;-78
2021/06/11 09:49:41;;;;;;;10.27;6.70;;;35.40;43.70;;;;;;5032360;28;20326;-77
2021/06/11 09:52:08;;;;;;;5.38;4.70;;;35.60;42.50;;;;;;4999992;28;20101;-78
2021/06/11 09:54:34;;;;;;;8.15;4.43;;;35.50;43.20;;;;;;5020721;28;20034;-77
2021/06/11 09:57:23;;;;;;;6.45;5.78;;;35.50;43.20;;;;;;5014810;28;20379;-78
2021/06/11 09:59:48;;;;;;;11.88;7.72;;;35.50;42.60;;;;;;5014853;28;20388;-77
2021/06/11 10:02:18;;;;;;;7.68;5.47;;;35.70;42.00;;;;;;5020838;28;20036;-77
2021/06/11 10:04:44;;;;;;;6.90;5.82;;;35.90;41.80;;;;;;5037352;28;20036;-78
2021/06/11 10:07:10;;;;;;;13.52;10.70;;;36.10;41.90;;;;;;5040123;28;20037;-78
2021/06/11 10:09:35;;;;;;;10.98;9.38;;;36.20;41.40;;;;;;5031736;28;20048;-77
2021/06/11 10:12:01;;;;;;;4.28;3.17;;;36.30;41.70;;;;;;5020397;28;20115;-78
2021/06/11 10:14:27;;;;;;;11.65;8.85;;;35.80;42.70;;;;;;4998668;28;20040;-78
2021/06/11 10:16:52;;;;;;;6.32;4.32;;;35.80;42.20;;;;;;5021830;28;20566;-78
2021/06/11 10:19:18;;;;;;;7.07;5.90;;;36.30;42.30;;;;;;5019422;28;20068;-77
2021/06/11 10:21:45;;;;;;;11.45;10.38;;;36.40;41.90;;;;;;5007345;28;20098;-78
2021/06/11 10:24:10;;;;;;;10.80;5.38;;;36.50;40.70;;;;;;5025010;28;20067;-78
2021/06/11 10:26:36;;;;;;;8.13;7.25;;;36.40;40.30;;;;;;5031844;28;20056;-78
2021/06/11 10:29:01;;;;;;;9.63;7.53;;;36.30;40.00;;;;;;5003299;28;20037;-78
2021/06/11 10:31:27;;;;;;;7.93;5.57;;;36.10;40.30;;;;;;5014534;28;20041;-78
2021/06/11 10:33:54;;;;;;;8.60;7.70;;;35.80;40.80;;;;;;5033669;28;20410;-78
2021/06/11 10:38:53;;;;;;;10.20;6.93;;;35.70;41.70;;;;;;5035894;28;20393;-78
2021/06/11 10:41:18;;;;;;;8.05;6.22;;;35.90;41.60;;;;;;4994633;28;20091;-78
2021/06/11 10:43:44;;;;;;;6.57;5.72;;;36.10;41.40;;;;;;4995399;28;20525;-78
2021/06/11 10:46:32;;;;;;;6.32;5.10;;;36.60;40.30;;;;;;5025146;28;20025;-78
2021/06/11 10:49:07;;;;;;;8.88;7.03;;;36.80;39.60;;;;;;5035113;28;20409;-78
2021/06/11 10:51:50;;;;;;;;;;;36.90;39.10;;;;;;5035087;28;20057;-78
2021/06/11 10:54:16;;;;;;;5.45;3.30;;;36.90;39.60;;;;;;5032784;28;20343;-78
2021/06/11 10:56:56;;;;;;;3.10;2.78;;;36.80;39.80;;;;;;5036209;28;20087;-78
2021/06/11 10:59:35;;;;;;;8.70;4.68;;;36.40;40.30;;;;;;5037112;28;20033;-78
2021/06/11 11:02:01;;;;;;;4.68;4.07;;;36.50;39.60;;;;;;5020262;28;20041;-78
2021/06/11 11:04:28;;;;;;;7.55;4.25;;;36.40;40.60;;;;;;5020831;28;20038;-78
2021/06/11 11:06:54;;;;;;;3.63;3.30;;;36.40;40.80;;;;;;5036433;28;20036;-78
2021/06/11 11:09:19;;;;;;;5.25;3.10;;;36.50;40.00;;;;;;5020735;28;20034;-78
2021/06/11 11:11:48;;;;;;;6.40;3.97;;;36.70;40.20;;;;;;5023133;28;20055;-78
2021/06/11 11:14:36;;;;;;;5.07;3.83;;;36.80;39.70;;;;;;5023480;28;20037;-77
2021/06/11 11:17:01;;;;;;;5.30;3.55;;;36.40;38.90;;;;;;5035114;28;20042;-78
2021/06/11 11:19:51;;;;;;;4.25;3.85;;;37.10;37.90;;;;;;5033061;28;20030;-78
2021/06/11 11:22:27;;;;;;;4.68;4.22;;;36.90;37.40;;;;;;5031486;28;20048;-77
2021/06/11 11:24:53;;;;;;;3.67;2.97;;;37.10;39.10;;;;;;4327200;28;10000575;-77
2021/06/11 11:27:19;;;;;;;4.93;3.45;;;37.50;38.70;;;;;;5033827;28;20033;-77
2021/06/11 11:29:44;;;;;;;4.88;4.38;;;38.20;37.30;;;;;;5030105;28;20040;-77
2021/06/11 11:32:11;;;;;;;6.47;4.68;;;37.50;38.40;;;;;;5016867;28;20467;-77
2021/06/11 11:34:36;;;;;;;6.40;4.13;;;37.90;37.90;;;;;;5031791;28;20461;-78
2021/06/11 11:37:02;;;;;;;5.00;4.03;;;37.70;38.00;;;;;;5019957;28;20232;-78
2021/06/11 11:39:28;;;;;;;7.68;5.20;;;37.90;38.10;;;;;;5036706;28;20038;-78
2021/06/11 11:41:55;;;;;;;8.05;4.15;;;38.10;37.90;;;;;;5004211;28;20441;-78
2021/06/11 11:44:20;;;;;;;5.05;3.85;;;38.10;37.80;;;;;;5037323;28;20041;-78
2021/06/11 11:46:48;;;;;;;4.30;3.30;;;38.10;37.60;;;;;;5038376;28;20503;-77
2021/06/11 11:49:14;;;;;;;9.93;4.70;;;37.90;36.90;;;;;;5034855;28;20037;-77
2021/06/11 11:51:39;;;;;;;4.80;4.22;;;37.90;37.60;;;;;;5037577;28;20045;-78
2021/06/11 11:54:05;;;;;;;4.25;3.85;;;37.90;37.50;;;;;;5043060;28;20063;-78
2021/06/11 11:56:31;;;;;;;3.28;2.97;;;38.00;37.40;;;;;;5020570;28;20065;-78
2021/06/11 11:58:56;;;;;;;3.97;3.00;;;37.90;37.00;;;;;;5018605;28;20428;-78
2021/06/11 12:01:22;;;;;;;4.72;3.22;;;38.00;37.20;;;;;;5022883;28;20508;-78
2021/06/11 12:03:47;;;;;;;6.57;4.15;;;38.30;37.20;;;;;;5040593;28;20029;-78
2021/06/11 12:06:13;;;;;;;4.70;3.20;;;38.60;36.20;;;;;;5029674;28;20029;-78
2021/06/11 12:08:38;;;;;;;4.25;3.40;;;39.00;36.40;;;;;;5024600;28;20034;-78
2021/06/11 12:11:04;;;;;;;6.18;3.85;;;39.10;36.80;;;;;;5020193;28;20029;-77
2021/06/11 12:13:29;;;;;;;4.47;3.40;;;39.00;37.10;;;;;;5030447;28;20080;-78
2021/06/11 12:15:55;;;;;;;3.72;3.35;;;39.30;36.50;;;;;;5017900;28;20040;-78
2021/06/11 12:18:20;;;;;;;4.53;3.38;;;39.50;36.10;;;;;;5024354;28;20032;-77
2021/06/11 12:20:46;;;;;;;4.38;2.97;;;39.60;35.50;;;;;;5023938;28;20045;-78
2021/06/11 12:23:11;;;;;;;6.38;3.13;;;40.30;34.70;;;;;;5038820;28;20057;-78
2021/06/11 12:25:37;;;;;;;7.35;3.00;;;40.20;35.60;;;;;;5022329;28;20477;-77
2021/06/11 12:28:03;;;;;;;4.30;3.15;;;40.60;35.00;;;;;;5008370;28;20655;-78
2021/06/11 12:30:28;;;;;;;4.88;3.53;;;40.80;33.90;;;;;;5038302;28;20037;-78
2021/06/11 12:32:55;;;;;;;4.03;2.88;;;40.70;33.20;;;;;;5038289;28;20033;-78
2021/06/11 12:35:22;;;;;;;5.78;4.10;;;40.40;33.40;;;;;;5010115;28;20087;-79
2021/06/11 12:37:48;;;;;;;4.63;3.60;;;40.40;32.90;;;;;;5003332;28;20033;-79
2021/06/11 12:40:14;;;;;;;3.95;3.35;;;40.40;32.90;;;;;;5034879;28;20389;-79
2021/06/11 12:42:42;;;;;;;5.25;3.67;;;40.40;33.50;;;;;;5002165;28;20474;-79
2021/06/11 12:45:08;;;;;;;5.45;3.28;;;40.50;33.70;;;;;;5020529;28;20039;-79
2021/06/11 12:47:34;;;;;;;9.65;5.35;;;40.50;33.30;;;;;;5033095;28;20449;-78